sensor_id;sensor_type;location;lat;lon;timestamp;pressure;altitude;pressure_sealevel;temperature;humidity
20825;BME280;10573;50.936;6.978;2023-04-12T00:01:56;100414.09;;;12.38;56.45
20825;BME280;10573;50.936;6.978;2023-04-12T00:04:21;100392.78;;;12.33;56.37
20825;BME280;10573;50.936;6.978;2023-04-12T00:06:51;100390.03;;;12.33;55.69
20825;BME280;10573;50.936;6.978;2023-04-12T00:09:18;100401.97;;;12.32;55.61
20825;BME280;10573;50.936;6.978;2023-04-12T00:11:43;100381.31;;;12.30;55.12
20825;BME280;10573;50.936;6.978;2023-04-12T00:14:09;100370.09;;;12.49;54.97
20825;BME280;10573;50.936;6.978;2023-04-12T00:16:34;100365.88;;;12.12;54.68
20825;BME280;10573;50.936;6.978;2023-04-12T00:19:02;100360.66;;;12.27;55.78
20825;BME280;10573;50.936;6.978;2023-04-12T00:21:27;100372.38;;;12.11;55.33
20825;BME280;10573;50.936;6.978;2023-04-12T00:23:53;100364.34;;;12.09;55.21
20825;BME280;10573;50.936;6.978;2023-04-12T00:26:19;100356.31;;;12.08;54.09
20825;BME280;10573;50.936;6.978;2023-04-12T00:28:45;100348.72;;;12.28;54.23
20825;BME280;10573;50.936;6.978;2023-04-12T00:31:11;100345.50;;;12.33;54.77
20825;BME280;10573;50.936;6.978;2023-04-12T00:33:36;100340.66;;;12.18;55.04
20825;BME280;10573;50.936;6.978;2023-04-12T00:36:01;100324.84;;;12.38;54.80
20825;BME280;10573;50.936;6.978;2023-04-12T00:38:27;100322.41;;;12.27;55.81
20825;BME280;10573;50.936;6.978;2023-04-12T00:40:52;100316.53;;;11.97;56.39
20825;BME280;10573;50.936;6.978;2023-04-12T00:43:17;100312.34;;;12.28;56.91
20825;BME280;10573;50.936;6.978;2023-04-12T00:45:46;100310.25;;;11.70;56.68
20825;BME280;10573;50.936;6.978;2023-04-12T00:48:11;100307.81;;;11.59;56.48
20825;BME280;10573;50.936;6.978;2023-04-12T00:50:37;100295.59;;;11.71;57.51
20825;BME280;10573;50.936;6.978;2023-04-12T00:53:08;100296.03;;;11.58;58.67
20825;BME280;10573;50.936;6.978;2023-04-12T00:55:37;100284.59;;;11.55;58.92
20825;BME280;10573;50.936;6.978;2023-04-12T00:58:03;100283.97;;;11.69;58.81
20825;BME280;10573;50.936;6.978;2023-04-12T01:00:29;100278.47;;;11.61;60.16
20825;BME280;10573;50.936;6.978;2023-04-12T01:02:54;100279.50;;;11.60;60.11
20825;BME280;10573;50.936;6.978;2023-04-12T01:05:21;100266.38;;;11.64;60.34
20825;BME280;10573;50.936;6.978;2023-04-12T01:13:11;100254.13;;;11.68;61.00
20825;BME280;10573;50.936;6.978;2023-04-12T01:15:43;100250.50;;;11.51;61.90
20825;BME280;10573;50.936;6.978;2023-04-12T01:18:12;100243.81;;;11.53;61.12
20825;BME280;10573;50.936;6.978;2023-04-12T01:20:56;100248.28;;;11.63;61.66
20825;BME280;10573;50.936;6.978;2023-04-12T01:28:42;100225.28;;;11.65;61.60
20825;BME280;10573;50.936;6.978;2023-04-12T01:31:08;100223.91;;;11.61;62.49
20825;BME280;10573;50.936;6.978;2023-04-12T01:33:37;100223.53;;;11.48;62.98
20825;BME280;10573;50.936;6.978;2023-04-12T01:36:06;100207.34;;;11.54;63.88
20825;BME280;10573;50.936;6.978;2023-04-12T01:38:33;100199.94;;;11.30;63.73
20825;BME280;10573;50.936;6.978;2023-04-12T01:40:58;100198.94;;;11.39;63.44
20825;BME280;10573;50.936;6.978;2023-04-12T01:43:24;100190.72;;;11.23;64.50
20825;BME280;10573;50.936;6.978;2023-04-12T01:45:49;100184.94;;;11.34;63.59
20825;BME280;10573;50.936;6.978;2023-04-12T01:48:15;100178.31;;;11.02;63.78
20825;BME280;10573;50.936;6.978;2023-04-12T01:50:47;100164.75;;;11.11;64.44
20825;BME280;10573;50.936;6.978;2023-04-12T01:55:58;100148.22;;;11.12;64.58
20825;BME280;10573;50.936;6.978;2023-04-12T01:58:24;100157.19;;;10.96;64.58
20825;BME280;10573;50.936;6.978;2023-04-12T02:00:49;100140.59;;;10.81;64.96
20825;BME280;10573;50.936;6.978;2023-04-12T02:03:16;100140.13;;;10.94;64.62
20825;BME280;10573;50.936;6.978;2023-04-12T02:05:44;100137.19;;;10.87;64.98
20825;BME280;10573;50.936;6.978;2023-04-12T02:08:10;100132.81;;;10.95;64.48
20825;BME280;10573;50.936;6.978;2023-04-12T02:10:35;100116.91;;;10.82;65.15
20825;BME280;10573;50.936;6.978;2023-04-12T02:13:03;100108.75;;;10.82;65.13
20825;BME280;10573;50.936;6.978;2023-04-12T02:15:29;100106.84;;;10.82;65.59
20825;BME280;10573;50.936;6.978;2023-04-12T02:17:55;100100.16;;;11.03;65.39
20825;BME280;10573;50.936;6.978;2023-04-12T02:20:21;100091.06;;;10.94;66.20
20825;BME280;10573;50.936;6.978;2023-04-12T02:22:46;100089.63;;;10.73;66.17
20825;BME280;10573;50.936;6.978;2023-04-12T02:25:12;100083.22;;;10.83;66.80
20825;BME280;10573;50.936;6.978;2023-04-12T02:27:37;100093.97;;;10.93;66.38
20825;BME280;10573;50.936;6.978;2023-04-12T02:30:02;100086.31;;;10.88;67.18
20825;BME280;10573;50.936;6.978;2023-04-12T02:32:29;100074.44;;;11.05;66.98
20825;BME280;10573;50.936;6.978;2023-04-12T02:34:55;100078.84;;;11.06;66.71
20825;BME280;10573;50.936;6.978;2023-04-12T02:37:24;100064.22;;;11.07;66.84
20825;BME280;10573;50.936;6.978;2023-04-12T02:39:51;100065.41;;;11.13;66.85
20825;BME280;10573;50.936;6.978;2023-04-12T02:42:18;100065.66;;;10.77;67.62
20825;BME280;10573;50.936;6.978;2023-04-12T02:44:43;100063.38;;;10.64;68.10
20825;BME280;10573;50.936;6.978;2023-04-12T02:47:11;100053.72;;;10.78;67.73
20825;BME280;10573;50.936;6.978;2023-04-12T02:49:37;100040.78;;;10.46;69.11
20825;BME280;10573;50.936;6.978;2023-04-12T02:52:02;100017.44;;;10.69;68.97
20825;BME280;10573;50.936;6.978;2023-04-12T02:54:27;100016.50;;;10.52;68.98
20825;BME280;10573;50.936;6.978;2023-04-12T02:56:53;100004.34;;;10.38;70.03
20825;BME280;10573;50.936;6.978;2023-04-12T02:59:19;99999.66;;;10.49;69.65
20825;BME280;10573;50.936;6.978;2023-04-12T03:01:44;99990.53;;;10.66;69.69
20825;BME280;10573;50.936;6.978;2023-04-12T03:04:10;99987.44;;;10.61;70.03
20825;BME280;10573;50.936;6.978;2023-04-12T03:06:36;99985.84;;;10.42;69.99
20825;BME280;10573;50.936;6.978;2023-04-12T03:09:01;99973.31;;;10.66;69.79
20825;BME280;10573;50.936;6.978;2023-04-12T03:11:26;99976.25;;;10.38;70.12
20825;BME280;10573;50.936;6.978;2023-04-12T03:13:52;99953.63;;;10.37;70.11
20825;BME280;10573;50.936;6.978;2023-04-12T03:16:21;99959.38;;;10.34;71.25
20825;BME280;10573;50.936;6.978;2023-04-12T03:18:47;99956.13;;;10.31;70.60
20825;BME280;10573;50.936;6.978;2023-04-12T03:21:13;99951.91;;;10.36;70.80
20825;BME280;10573;50.936;6.978;2023-04-12T03:23:38;99941.34;;;10.33;70.99
20825;BME280;10573;50.936;6.978;2023-04-12T03:26:03;99932.72;;;10.12;70.88
20825;BME280;10573;50.936;6.978;2023-04-12T03:28:28;99925.91;;;10.07;71.40
20825;BME280;10573;50.936;6.978;2023-04-12T03:30:54;99922.69;;;10.12;71.55
20825;BME280;10573;50.936;6.978;2023-04-12T03:33:19;99903.56;;;10.30;71.22
20825;BME280;10573;50.936;6.978;2023-04-12T03:35:45;99900.47;;;10.25;71.99
20825;BME280;10573;50.936;6.978;2023-04-12T03:38:10;99901.44;;;10.16;71.61
20825;BME280;10573;50.936;6.978;2023-04-12T03:40:35;99896.69;;;10.18;71.33
20825;BME280;10573;50.936;6.978;2023-04-12T03:43:01;99875.03;;;10.00;72.08
20825;BME280;10573;50.936;6.978;2023-04-12T03:45:26;99867.75;;;10.08;71.47
20825;BME280;10573;50.936;6.978;2023-04-12T03:47:51;99868.94;;;10.06;71.86
20825;BME280;10573;50.936;6.978;2023-04-12T03:50:17;99863.28;;;9.99;72.20
20825;BME280;10573;50.936;6.978;2023-04-12T03:52:42;99855.50;;;10.04;72.25
20825;BME280;10573;50.936;6.978;2023-04-12T03:55:08;99858.66;;;9.91;72.01
20825;BME280;10573;50.936;6.978;2023-04-12T03:57:33;99855.66;;;10.11;72.09
20825;BME280;10573;50.936;6.978;2023-04-12T03:59:59;99844.28;;;10.07;71.99
20825;BME280;10573;50.936;6.978;2023-04-12T04:02:25;99834.91;;;10.02;72.20
20825;BME280;10573;50.936;6.978;2023-04-12T04:04:51;99826.88;;;10.00;72.22
20825;BME280;10573;50.936;6.978;2023-04-12T04:07:16;99818.88;;;9.90;72.38
20825;BME280;10573;50.936;6.978;2023-04-12T04:09:41;99804.44;;;9.98;71.95
20825;BME280;10573;50.936;6.978;2023-04-12T04:12:07;99800.03;;;10.05;71.92
20825;BME280;10573;50.936;6.978;2023-04-12T04:14:33;99790.13;;;9.88;71.71
20825;BME280;10573;50.936;6.978;2023-04-12T04:17:00;99796.81;;;10.02;71.80
20825;BME280;10573;50.936;6.978;2023-04-12T04:19:26;99798.28;;;9.88;72.13
20825;BME280;10573;50.936;6.978;2023-04-12T04:21:51;99782.69;;;9.98;71.92
20825;BME280;10573;50.936;6.978;2023-04-12T04:24:16;99781.31;;;10.02;72.32
20825;BME280;10573;50.936;6.978;2023-04-12T04:26:43;99771.09;;;9.96;72.29
20825;BME280;10573;50.936;6.978;2023-04-12T04:29:09;99773.47;;;9.91;72.25
20825;BME280;10573;50.936;6.978;2023-04-12T04:31:35;99772.09;;;9.87;72.88
20825;BME280;10573;50.936;6.978;2023-04-12T04:34:04;99766.03;;;10.10;72.32
20825;BME280;10573;50.936;6.978;2023-04-12T04:36:33;99762.59;;;9.91;72.47
20825;BME280;10573;50.936;6.978;2023-04-12T04:38:59;99763.50;;;10.16;71.88
20825;BME280;10573;50.936;6.978;2023-04-12T04:41:25;99753.09;;;9.95;72.81
20825;BME280;10573;50.936;6.978;2023-04-12T04:43:50;99755.31;;;10.00;72.92
20825;BME280;10573;50.936;6.978;2023-04-12T04:46:16;99758.56;;;10.12;72.57
20825;BME280;10573;50.936;6.978;2023-04-12T04:48:45;99753.41;;;10.00;72.62
20825;BME280;10573;50.936;6.978;2023-04-12T04:51:10;99757.00;;;10.01;72.83
20825;BME280;10573;50.936;6.978;2023-04-12T04:53:35;99758.84;;;9.92;73.02
20825;BME280;10573;50.936;6.978;2023-04-12T04:56:01;99751.22;;;9.96;73.14
20825;BME280;10573;50.936;6.978;2023-04-12T04:58:26;99743.06;;;10.04;73.25
20825;BME280;10573;50.936;6.978;2023-04-12T05:00:54;99744.97;;;10.20;72.61
20825;BME280;10573;50.936;6.978;2023-04-12T05:03:21;99742.91;;;10.14;72.61
20825;BME280;10573;50.936;6.978;2023-04-12T05:05:47;99745.94;;;9.94;73.21
20825;BME280;10573;50.936;6.978;2023-04-12T05:08:13;99737.25;;;9.90;73.50
20825;BME280;10573;50.936;6.978;2023-04-12T05:10:38;99730.97;;;9.98;73.53
20825;BME280;10573;50.936;6.978;2023-04-12T05:13:03;99733.53;;;10.00;73.66
20825;BME280;10573;50.936;6.978;2023-04-12T05:15:29;99727.94;;;10.10;73.41
20825;BME280;10573;50.936;6.978;2023-04-12T05:17:55;99734.69;;;9.89;74.35
20825;BME280;10573;50.936;6.978;2023-04-12T05:20:20;99722.50;;;10.10;74.03
20825;BME280;10573;50.936;6.978;2023-04-12T05:22:46;99710.09;;;10.15;73.90
20825;BME280;10573;50.936;6.978;2023-04-12T05:25:11;99704.78;;;10.05;73.98
20825;BME280;10573;50.936;6.978;2023-04-12T05:27:36;99703.41;;;9.85;74.60
20825;BME280;10573;50.936;6.978;2023-04-12T05:30:02;99690.53;;;9.95;74.54
20825;BME280;10573;50.936;6.978;2023-04-12T05:32:28;99692.72;;;10.08;74.56
20825;BME280;10573;50.936;6.978;2023-04-12T05:34:53;99685.41;;;10.00;74.75
20825;BME280;10573;50.936;6.978;2023-04-12T05:37:18;99682.00;;;9.98;74.85
20825;BME280;10573;50.936;6.978;2023-04-12T05:39:43;99675.03;;;10.04;74.46
20825;BME280;10573;50.936;6.978;2023-04-12T05:42:09;99676.56;;;10.06;74.88
20825;BME280;10573;50.936;6.978;2023-04-12T05:44:34;99677.94;;;10.02;74.69
20825;BME280;10573;50.936;6.978;2023-04-12T05:47:00;99673.31;;;9.95;74.96
20825;BME280;10573;50.936;6.978;2023-04-12T05:49:29;99672.50;;;10.02;74.94
20825;BME280;10573;50.936;6.978;2023-04-12T05:51:57;99672.16;;;10.05;75.20
20825;BME280;10573;50.936;6.978;2023-04-12T05:54:23;99662.28;;;9.96;75.11
20825;BME280;10573;50.936;6.978;2023-04-12T05:56:49;99663.97;;;9.97;75.19
20825;BME280;10573;50.936;6.978;2023-04-12T05:59:15;99662.28;;;9.96;75.52
20825;BME280;10573;50.936;6.978;2023-04-12T06:01:42;99656.88;;;10.04;75.62
20825;BME280;10573;50.936;6.978;2023-04-12T06:04:08;99649.72;;;10.12;75.98
20825;BME280;10573;50.936;6.978;2023-04-12T06:06:33;99658.88;;;10.02;76.15
20825;BME280;10573;50.936;6.978;2023-04-12T06:08:59;99660.25;;;10.15;76.30
20825;BME280;10573;50.936;6.978;2023-04-12T06:11:28;99657.53;;;10.23;75.70
20825;BME280;10573;50.936;6.978;2023-04-12T06:13:53;99650.72;;;10.02;76.10
20825;BME280;10573;50.936;6.978;2023-04-12T06:16:19;99643.25;;;10.04;75.95
20825;BME280;10573;50.936;6.978;2023-04-12T06:18:44;99651.72;;;10.18;75.79
20825;BME280;10573;50.936;6.978;2023-04-12T06:21:10;99639.16;;;10.17;75.81
20825;BME280;10573;50.936;6.978;2023-04-12T06:23:35;99633.72;;;10.41;75.17
20825;BME280;10573;50.936;6.978;2023-04-12T06:26:00;99633.38;;;10.20;75.50
20825;BME280;10573;50.936;6.978;2023-04-12T06:28:26;99636.44;;;10.25;75.71
20825;BME280;10573;50.936;6.978;2023-04-12T06:30:51;99620.78;;;9.94;76.33
20825;BME280;10573;50.936;6.978;2023-04-12T06:33:17;99617.06;;;10.12;76.42
20825;BME280;10573;50.936;6.978;2023-04-12T06:35:46;99619.59;;;10.05;76.47
20825;BME280;10573;50.936;6.978;2023-04-12T06:38:12;99613.31;;;10.13;76.56
20825;BME280;10573;50.936;6.978;2023-04-12T06:40:37;99602.44;;;10.13;76.47
20825;BME280;10573;50.936;6.978;2023-04-12T06:43:02;99595.63;;;10.08;76.62
20825;BME280;10573;50.936;6.978;2023-04-12T06:45:28;99598.19;;;10.10;76.24
20825;BME280;10573;50.936;6.978;2023-04-12T06:47:53;99604.28;;;10.20;76.37
20825;BME280;10573;50.936;6.978;2023-04-12T06:50:21;99596.31;;;10.11;76.12
20825;BME280;10573;50.936;6.978;2023-04-12T06:52:46;99585.25;;;10.29;76.32
20825;BME280;10573;50.936;6.978;2023-04-12T06:55:12;99576.91;;;10.22;76.36
20825;BME280;10573;50.936;6.978;2023-04-12T06:57:38;99560.38;;;10.32;76.29
20825;BME280;10573;50.936;6.978;2023-04-12T07:00:05;99561.91;;;10.18;76.69
20825;BME280;10573;50.936;6.978;2023-04-12T07:02:31;99560.88;;;10.27;76.24
20825;BME280;10573;50.936;6.978;2023-04-12T07:04:56;99555.28;;;10.20;76.31
20825;BME280;10573;50.936;6.978;2023-04-12T07:07:21;99558.50;;;10.32;76.54
20825;BME280;10573;50.936;6.978;2023-04-12T07:09:47;99545.06;;;10.31;76.09
20825;BME280;10573;50.936;6.978;2023-04-12T07:12:12;99544.91;;;10.40;75.91
20825;BME280;10573;50.936;6.978;2023-04-12T07:14:38;99554.13;;;10.39;75.94
20825;BME280;10573;50.936;6.978;2023-04-12T07:17:03;99539.28;;;10.34;76.08
20825;BME280;10573;50.936;6.978;2023-04-12T07:19:28;99539.47;;;10.40;76.28
20825;BME280;10573;50.936;6.978;2023-04-12T07:21:55;99525.50;;;10.52;75.50
20825;BME280;10573;50.936;6.978;2023-04-12T07:24:20;99535.47;;;10.68;75.10
20825;BME280;10573;50.936;6.978;2023-04-12T07:26:46;99527.41;;;10.83;74.87
20825;BME280;10573;50.936;6.978;2023-04-12T07:29:11;99521.16;;;10.66;75.26
20825;BME280;10573;50.936;6.978;2023-04-12T07:31:36;99520.63;;;10.79;74.72
20825;BME280;10573;50.936;6.978;2023-04-12T07:34:02;99516.06;;;10.71;75.08
20825;BME280;10573;50.936;6.978;2023-04-12T07:36:27;99513.53;;;10.61;75.02
20825;BME280;10573;50.936;6.978;2023-04-12T07:38:52;99509.72;;;10.79;75.34
20825;BME280;10573;50.936;6.978;2023-04-12T07:41:20;99497.69;;;10.65;75.37
20825;BME280;10573;50.936;6.978;2023-04-12T07:43:45;99496.56;;;10.90;74.87
20825;BME280;10573;50.936;6.978;2023-04-12T07:46:11;99495.50;;;11.00;74.79
20825;BME280;10573;50.936;6.978;2023-04-12T07:48:36;99483.31;;;11.11;74.44
20825;BME280;10573;50.936;6.978;2023-04-12T07:51:01;99491.13;;;11.14;74.84
20825;BME280;10573;50.936;6.978;2023-04-12T07:53:27;99485.19;;;11.10;74.56
20825;BME280;10573;50.936;6.978;2023-04-12T07:55:53;99485.78;;;10.97;74.53
20825;BME280;10573;50.936;6.978;2023-04-12T07:58:19;99485.28;;;10.94;74.44
20825;BME280;10573;50.936;6.978;2023-04-12T08:00:45;99479.84;;;10.94;75.45
20825;BME280;10573;50.936;6.978;2023-04-12T08:03:11;99478.16;;;11.16;74.71
20825;BME280;10573;50.936;6.978;2023-04-12T08:05:36;99478.59;;;11.28;74.59
20825;BME280;10573;50.936;6.978;2023-04-12T08:08:02;99487.84;;;11.18;74.54
20825;BME280;10573;50.936;6.978;2023-04-12T08:10:28;99480.88;;;11.16;74.54
20825;BME280;10573;50.936;6.978;2023-04-12T08:12:53;99482.28;;;11.12;74.39
20825;BME280;10573;50.936;6.978;2023-04-12T08:15:18;99472.38;;;11.19;75.03
20825;BME280;10573;50.936;6.978;2023-04-12T08:17:43;99479.16;;;11.23;74.56
20825;BME280;10573;50.936;6.978;2023-04-12T08:20:10;99466.78;;;11.35;74.33
20825;BME280;10573;50.936;6.978;2023-04-12T08:22:36;99466.03;;;11.65;73.79
20825;BME280;10573;50.936;6.978;2023-04-12T08:25:01;99473.09;;;11.59;73.77
20825;BME280;10573;50.936;6.978;2023-04-12T08:27:28;99472.91;;;11.61;73.50
20825;BME280;10573;50.936;6.978;2023-04-12T08:29:53;99468.41;;;11.83;73.42
20825;BME280;10573;50.936;6.978;2023-04-12T08:32:18;99459.94;;;12.01;73.23
20825;BME280;10573;50.936;6.978;2023-04-12T08:34:44;99460.13;;;11.99;72.99
20825;BME280;10573;50.936;6.978;2023-04-12T08:37:09;99453.25;;;12.33;72.35
20825;BME280;10573;50.936;6.978;2023-04-12T08:39:34;99458.22;;;12.00;72.80
20825;BME280;10573;50.936;6.978;2023-04-12T08:42:01;99461.16;;;11.98;72.77
20825;BME280;10573;50.936;6.978;2023-04-12T08:44:35;99461.25;;;12.05;72.90
20825;BME280;10573;50.936;6.978;2023-04-12T08:47:02;99461.69;;;12.08;72.93
20825;BME280;10573;50.936;6.978;2023-04-12T08:49:28;99468.31;;;11.99;72.85
20825;BME280;10573;50.936;6.978;2023-04-12T08:51:54;99468.22;;;11.84;73.13
20825;BME280;10573;50.936;6.978;2023-04-12T08:54:20;99455.63;;;11.68;73.64
20825;BME280;10573;50.936;6.978;2023-04-12T08:56:45;99451.69;;;11.86;73.58
20825;BME280;10573;50.936;6.978;2023-04-12T08:59:11;99454.47;;;12.01;73.55
20825;BME280;10573;50.936;6.978;2023-04-12T09:01:40;99440.53;;;12.25;72.94
20825;BME280;10573;50.936;6.978;2023-04-12T09:04:05;99440.63;;;12.32;72.26
20825;BME280;10573;50.936;6.978;2023-04-12T09:06:30;99445.69;;;12.65;71.59
20825;BME280;10573;50.936;6.978;2023-04-12T09:08:57;99439.38;;;12.50;71.99
20825;BME280;10573;50.936;6.978;2023-04-12T09:11:27;99426.00;;;12.55;71.71
20825;BME280;10573;50.936;6.978;2023-04-12T09:13:53;99425.63;;;12.58;72.27
20825;BME280;10573;50.936;6.978;2023-04-12T09:16:37;99423.00;;;12.86;71.48
20825;BME280;10573;50.936;6.978;2023-04-12T09:19:04;99432.47;;;13.27;70.34
20825;BME280;10573;50.936;6.978;2023-04-12T09:21:30;99440.66;;;12.84;71.05
20825;BME280;10573;50.936;6.978;2023-04-12T09:26:27;99424.84;;;12.64;71.53
20825;BME280;10573;50.936;6.978;2023-04-12T09:28:53;99427.63;;;12.86;71.61
20825;BME280;10573;50.936;6.978;2023-04-12T09:31:18;99429.41;;;12.93;71.43
20825;BME280;10573;50.936;6.978;2023-04-12T09:33:44;99428.81;;;12.62;72.74
20825;BME280;10573;50.936;6.978;2023-04-12T09:36:10;99430.88;;;12.59;73.05
20825;BME280;10573;50.936;6.978;2023-04-12T09:38:38;99423.16;;;12.63;72.53
20825;BME280;10573;50.936;6.978;2023-04-12T09:41:18;99422.41;;;12.69;72.59
20825;BME280;10573;50.936;6.978;2023-04-12T09:43:44;99423.44;;;12.68;73.01
20825;BME280;10573;50.936;6.978;2023-04-12T09:46:10;99430.50;;;12.99;72.08
20825;BME280;10573;50.936;6.978;2023-04-12T09:48:40;99428.47;;;12.86;72.08
20825;BME280;10573;50.936;6.978;2023-04-12T09:51:06;99423.19;;;12.85;72.10
20825;BME280;10573;50.936;6.978;2023-04-12T09:53:33;99419.97;;;12.96;71.79
20825;BME280;10573;50.936;6.978;2023-04-12T09:55:58;99425.84;;;13.15;72.26
20825;BME280;10573;50.936;6.978;2023-04-12T09:58:25;99416.66;;;13.01;72.40
20825;BME280;10573;50.936;6.978;2023-04-12T10:00:51;99411.19;;;12.64;72.61
20825;BME280;10573;50.936;6.978;2023-04-12T10:03:18;99411.97;;;12.95;72.85
20825;BME280;10573;50.936;6.978;2023-04-12T10:05:43;99400.03;;;12.81;73.09
20825;BME280;10573;50.936;6.978;2023-04-12T10:08:10;99412.66;;;12.82;73.30
20825;BME280;10573;50.936;6.978;2023-04-12T10:10:35;99399.00;;;13.03;73.29
20825;BME280;10573;50.936;6.978;2023-04-12T10:13:01;99396.25;;;12.82;73.71
20825;BME280;10573;50.936;6.978;2023-04-12T10:15:26;99394.19;;;12.84;73.63
20825;BME280;10573;50.936;6.978;2023-04-12T10:17:53;99395.94;;;12.91;73.00
20825;BME280;10573;50.936;6.978;2023-04-12T10:20:19;99392.22;;;12.78;73.40
20825;BME280;10573;50.936;6.978;2023-04-12T10:22:49;99383.63;;;13.24;72.33
20825;BME280;10573;50.936;6.978;2023-04-12T10:25:21;99384.50;;;13.24;71.75
20825;BME280;10573;50.936;6.978;2023-04-12T10:27:47;99378.13;;;13.39;72.22
20825;BME280;10573;50.936;6.978;2023-04-12T10:32:48;99376.28;;;13.46;71.65
20825;BME280;10573;50.936;6.978;2023-04-12T10:35:13;99365.81;;;13.50;71.77
20825;BME280;10573;50.936;6.978;2023-04-12T10:40:29;99371.44;;;13.70;71.16
20825;BME280;10573;50.936;6.978;2023-04-12T10:45:42;99369.47;;;13.64;71.32
20825;BME280;10573;50.936;6.978;2023-04-12T10:48:07;99377.59;;;13.29;73.13
20825;BME280;10573;50.936;6.978;2023-04-12T10:50:32;99373.22;;;13.34;73.08
20825;BME280;10573;50.936;6.978;2023-04-12T10:55:37;99398.78;;;13.41;73.51
20825;BME280;10573;50.936;6.978;2023-04-12T10:58:02;99390.44;;;13.50;72.88
20825;BME280;10573;50.936;6.978;2023-04-12T11:03:12;99415.03;;;12.33;75.04
20825;BME280;10573;50.936;6.978;2023-04-12T11:08:22;99414.00;;;12.34;73.10
20825;BME280;10573;50.936;6.978;2023-04-12T11:10:48;99419.78;;;12.61;73.01
20825;BME280;10573;50.936;6.978;2023-04-12T11:13:14;99420.75;;;12.90;72.29
20825;BME280;10573;50.936;6.978;2023-04-12T11:15:40;99421.53;;;12.84;71.45
20825;BME280;10573;50.936;6.978;2023-04-12T11:18:05;99421.34;;;13.07;70.57
20825;BME280;10573;50.936;6.978;2023-04-12T11:20:31;99416.44;;;13.02;69.09
20825;BME280;10573;50.936;6.978;2023-04-12T11:22:57;99414.25;;;13.56;67.88
20825;BME280;10573;50.936;6.978;2023-04-12T11:25:23;99418.09;;;13.40;66.37
20825;BME280;10573;50.936;6.978;2023-04-12T11:27:49;99419.59;;;13.42;66.61
20825;BME280;10573;50.936;6.978;2023-04-12T11:30:15;99419.81;;;13.69;63.90
20825;BME280;10573;50.936;6.978;2023-04-12T11:32:43;99415.63;;;13.73;63.93
20825;BME280;10573;50.936;6.978;2023-04-12T11:35:08;99417.75;;;13.71;63.38
20825;BME280;10573;50.936;6.978;2023-04-12T11:37:33;99413.19;;;13.85;63.10
20825;BME280;10573;50.936;6.978;2023-04-12T11:39:59;99417.00;;;14.19;62.74
20825;BME280;10573;50.936;6.978;2023-04-12T11:42:29;99423.50;;;14.12;61.73
20825;BME280;10573;50.936;6.978;2023-04-12T11:44:55;99418.88;;;14.19;61.06
20825;BME280;10573;50.936;6.978;2023-04-12T11:47:21;99424.19;;;13.92;60.04
20825;BME280;10573;50.936;6.978;2023-04-12T11:49:48;99422.50;;;13.91;61.94
20825;BME280;10573;50.936;6.978;2023-04-12T11:52:15;99415.84;;;14.42;59.48
20825;BME280;10573;50.936;6.978;2023-04-12T11:54:44;99423.13;;;13.86;59.65
20825;BME280;10573;50.936;6.978;2023-04-12T11:57:11;99420.25;;;14.01;58.76
20825;BME280;10573;50.936;6.978;2023-04-12T11:59:36;99421.22;;;14.22;59.39
20825;BME280;10573;50.936;6.978;2023-04-12T12:02:02;99422.00;;;14.09;59.92
20825;BME280;10573;50.936;6.978;2023-04-12T12:04:28;99430.78;;;14.39;59.86
20825;BME280;10573;50.936;6.978;2023-04-12T12:06:55;99426.84;;;14.14;59.63
20825;BME280;10573;50.936;6.978;2023-04-12T12:09:21;99429.94;;;14.32;59.71
20825;BME280;10573;50.936;6.978;2023-04-12T12:11:46;99425.09;;;14.76;59.15
20825;BME280;10573;50.936;6.978;2023-04-12T12:14:12;99420.50;;;14.90;57.61
20825;BME280;10573;50.936;6.978;2023-04-12T12:16:42;99429.13;;;14.87;57.10
20825;BME280;10573;50.936;6.978;2023-04-12T12:19:07;99427.28;;;15.01;55.95
20825;BME280;10573;50.936;6.978;2023-04-12T12:21:32;99426.75;;;14.70;57.35
20825;BME280;10573;50.936;6.978;2023-04-12T12:23:58;99429.19;;;15.00;55.16
20825;BME280;10573;50.936;6.978;2023-04-12T12:26:24;99424.34;;;15.09;55.68
20825;BME280;10573;50.936;6.978;2023-04-12T12:28:50;99418.84;;;15.09;53.63
20825;BME280;10573;50.936;6.978;2023-04-12T12:31:17;99419.75;;;15.36;53.82
20825;BME280;10573;50.936;6.978;2023-04-12T12:33:43;99412.13;;;15.45;52.13
20825;BME280;10573;50.936;6.978;2023-04-12T12:36:09;99410.66;;;15.76;52.26
20825;BME280;10573;50.936;6.978;2023-04-12T12:38:38;99414.66;;;15.60;52.46
20825;BME280;10573;50.936;6.978;2023-04-12T12:43:58;99405.38;;;16.08;50.80
20825;BME280;10573;50.936;6.978;2023-04-12T12:46:23;99390.69;;;16.34;50.47
20825;BME280;10573;50.936;6.978;2023-04-12T12:48:49;99395.28;;;16.54;50.76
20825;BME280;10573;50.936;6.978;2023-04-12T12:51:14;99383.84;;;17.85;46.18
20825;BME280;10573;50.936;6.978;2023-04-12T12:53:44;99390.69;;;17.25;46.59
20825;BME280;10573;50.936;6.978;2023-04-12T12:56:13;99391.50;;;17.25;47.13
20825;BME280;10573;50.936;6.978;2023-04-12T12:58:42;99380.78;;;17.17;46.80
20825;BME280;10573;50.936;6.978;2023-04-12T13:01:07;99385.72;;;18.09;45.12
20825;BME280;10573;50.936;6.978;2023-04-12T13:03:33;99388.94;;;18.43;44.21
20825;BME280;10573;50.936;6.978;2023-04-12T13:05:58;99390.75;;;17.43;44.46
20825;BME280;10573;50.936;6.978;2023-04-12T13:08:24;99398.06;;;16.99;46.22
20825;BME280;10573;50.936;6.978;2023-04-12T13:10:49;99388.59;;;16.82;47.14
20825;BME280;10573;50.936;6.978;2023-04-12T13:13:15;99396.88;;;16.16;48.10
20825;BME280;10573;50.936;6.978;2023-04-12T13:15:40;99392.28;;;15.90;47.64
20825;BME280;10573;50.936;6.978;2023-04-12T13:18:05;99396.94;;;15.69;48.71
20825;BME280;10573;50.936;6.978;2023-04-12T13:20:32;99394.41;;;15.88;49.46
20825;BME280;10573;50.936;6.978;2023-04-12T13:22:57;99396.91;;;15.22;48.42
20825;BME280;10573;50.936;6.978;2023-04-12T13:25:22;99416.28;;;14.94;48.84
20825;BME280;10573;50.936;6.978;2023-04-12T13:27:48;99415.72;;;15.19;48.55
20825;BME280;10573;50.936;6.978;2023-04-12T13:30:14;99420.50;;;14.90;49.55